DLH8YY EDDF-LSZH
Flight info
| Callsign | DLH8YY |
|---|---|
| Flight time | 0h 32m |
| Altitude | 21000 |
| Route | ANEKI Y163 NEKLO Y171 INKAM T725 LAMGO T721 RILAX |
| Aircraft | A321/M-SDE3FGHIRWY/LB1 |
Departure
| Time | 2026-04-18 04:45 |
|---|---|
| Airport | Frankfurt Main Airport (EDDF) |
Arrival
| Time | 2026-04-18 05:17 |
|---|---|
| Airport | Zürich Airport (LSZH) |
| Time | Latitude | Longitude | Altitude | Speed | Heading |
|---|---|---|---|---|---|
| 2026-04-18 03:33 | 50.04533 | 8.56586 | 361 ft | 0 kts | 115° |
| 2026-04-18 04:30 | 50.04542 | 8.56554 | 358 ft | 4 kts | 116° |
| 2026-04-18 04:30 | 50.04555 | 8.56516 | 363 ft | 4 kts | 121° |
| 2026-04-18 04:30 | 50.04570 | 8.56483 | 365 ft | 4 kts | 140° |
| 2026-04-18 04:30 | 50.04589 | 8.56468 | 360 ft | 3 kts | 199° |
| 2026-04-18 04:31 | 50.04583 | 8.56463 | 360 ft | 4 kts | 205° |
| 2026-04-18 04:31 | 50.04574 | 8.56456 | 359 ft | 0 kts | 205° |
| 2026-04-18 04:34 | 50.04571 | 8.56455 | 360 ft | 0 kts | 205° |
| 2026-04-18 04:34 | 50.04567 | 8.56452 | 360 ft | 1 kts | 205° |
| 2026-04-18 04:35 | 50.04552 | 8.56440 | 359 ft | 3 kts | 205° |
| 2026-04-18 04:35 | 50.04527 | 8.56410 | 362 ft | 6 kts | 229° |
| 2026-04-18 04:35 | 50.04506 | 8.56339 | 361 ft | 9 kts | 249° |
| 2026-04-18 04:35 | 50.04481 | 8.56237 | 363 ft | 11 kts | 250° |
| 2026-04-18 04:36 | 50.04451 | 8.56109 | 363 ft | 14 kts | 249° |
| 2026-04-18 04:36 | 50.04417 | 8.55973 | 358 ft | 13 kts | 243° |
| 2026-04-18 04:36 | 50.04350 | 8.55926 | 361 ft | 11 kts | 169° |
| 2026-04-18 04:36 | 50.04279 | 8.55959 | 360 ft | 11 kts | 176° |
| 2026-04-18 04:37 | 50.04225 | 8.55879 | 357 ft | 13 kts | 249° |
| 2026-04-18 04:37 | 50.04195 | 8.55756 | 360 ft | 11 kts | 250° |
| 2026-04-18 04:37 | 50.04168 | 8.55643 | 353 ft | 12 kts | 250° |
| 2026-04-18 04:37 | 50.04136 | 8.55506 | 358 ft | 14 kts | 249° |
| 2026-04-18 04:38 | 50.04112 | 8.55406 | 354 ft | 15 kts | 250° |
| 2026-04-18 04:38 | 50.04061 | 8.55192 | 360 ft | 16 kts | 249° |
| 2026-04-18 04:38 | 50.04033 | 8.55075 | 359 ft | 18 kts | 249° |
| 2026-04-18 04:38 | 50.03978 | 8.54845 | 358 ft | 16 kts | 249° |
| 2026-04-18 04:39 | 50.03940 | 8.54685 | 355 ft | 15 kts | 249° |
| 2026-04-18 04:39 | 50.03904 | 8.54538 | 355 ft | 14 kts | 249° |
| 2026-04-18 04:39 | 50.03871 | 8.54399 | 351 ft | 13 kts | 248° |
| 2026-04-18 04:39 | 50.03840 | 8.54322 | 352 ft | 12 kts | 234° |
| 2026-04-18 04:40 | 50.03797 | 8.54211 | 356 ft | 12 kts | 248° |
| 2026-04-18 04:40 | 50.03766 | 8.54081 | 348 ft | 14 kts | 249° |
| 2026-04-18 04:40 | 50.03731 | 8.53934 | 348 ft | 16 kts | 250° |
| 2026-04-18 04:40 | 50.03677 | 8.53709 | 348 ft | 18 kts | 250° |
| 2026-04-18 04:41 | 50.03629 | 8.53519 | 338 ft | 20 kts | 250° |
| 2026-04-18 04:41 | 50.03596 | 8.53382 | 337 ft | 20 kts | 249° |
| 2026-04-18 04:41 | 50.03546 | 8.53168 | 334 ft | 22 kts | 249° |
| 2026-04-18 04:41 | 50.03498 | 8.52979 | 335 ft | 11 kts | 248° |
| 2026-04-18 04:42 | 50.03468 | 8.52864 | 333 ft | 12 kts | 248° |
| 2026-04-18 04:42 | 50.03437 | 8.52740 | 333 ft | 7 kts | 248° |
| 2026-04-18 04:42 | 50.03431 | 8.52719 | 332 ft | 1 kts | 249° |
| 2026-04-18 04:42 | 50.03430 | 8.52714 | 332 ft | 0 kts | 249° |
| 2026-04-18 04:43 | 50.03426 | 8.52698 | 333 ft | 4 kts | 249° |
| 2026-04-18 04:43 | 50.03412 | 8.52642 | 334 ft | 7 kts | 249° |
| 2026-04-18 04:43 | 50.03373 | 8.52596 | 334 ft | 8 kts | 191° |
| 2026-04-18 04:44 | 50.03306 | 8.52594 | 333 ft | 15 kts | 179° |
| 2026-04-18 04:44 | 50.02979 | 8.52597 | 336 ft | 84 kts | 179° |
| 2026-04-18 04:44 | 50.02167 | 8.52606 | 335 ft | 147 kts | 180° |
| 2026-04-18 04:44 | 50.01015 | 8.52626 | 655 ft | 169 kts | 178° |
| 2026-04-18 04:45 | 49.99830 | 8.52687 | 1332 ft | 172 kts | 177° |
| 2026-04-18 04:45 | 49.98612 | 8.52769 | 1874 ft | 181 kts | 176° |
| 2026-04-18 04:45 | 49.97296 | 8.52867 | 2210 ft | 197 kts | 176° |
| 2026-04-18 04:45 | 49.95878 | 8.52978 | 2548 ft | 212 kts | 177° |
| 2026-04-18 04:46 | 49.94350 | 8.53081 | 2918 ft | 227 kts | 178° |
| 2026-04-18 04:46 | 49.92723 | 8.53172 | 3490 ft | 237 kts | 178° |
| 2026-04-18 04:46 | 49.91094 | 8.53261 | 4233 ft | 239 kts | 179° |
| 2026-04-18 04:46 | 49.89401 | 8.53195 | 4816 ft | 250 kts | 183° |
| 2026-04-18 04:47 | 49.87603 | 8.53031 | 5272 ft | 265 kts | 184° |
| 2026-04-18 04:47 | 49.85756 | 8.52827 | 5996 ft | 267 kts | 185° |
| 2026-04-18 04:47 | 49.83886 | 8.52633 | 6713 ft | 271 kts | 184° |
| 2026-04-18 04:47 | 49.81991 | 8.52452 | 7387 ft | 275 kts | 184° |
| 2026-04-18 04:48 | 49.80074 | 8.52276 | 8066 ft | 278 kts | 184° |
| 2026-04-18 04:48 | 49.78127 | 8.52099 | 8751 ft | 282 kts | 185° |
| 2026-04-18 04:48 | 49.76156 | 8.51923 | 9435 ft | 286 kts | 185° |
| 2026-04-18 04:48 | 49.74186 | 8.51749 | 10100 ft | 289 kts | 185° |
| 2026-04-18 04:49 | 49.72137 | 8.51570 | 10472 ft | 304 kts | 185° |
| 2026-04-18 04:49 | 49.69953 | 8.51377 | 10600 ft | 326 kts | 185° |
| 2026-04-18 04:49 | 49.67618 | 8.51170 | 10726 ft | 346 kts | 185° |
| 2026-04-18 04:49 | 49.65175 | 8.50953 | 11078 ft | 356 kts | 185° |
| 2026-04-18 04:50 | 49.62700 | 8.50735 | 11605 ft | 361 kts | 185° |
| 2026-04-18 04:50 | 49.60181 | 8.50514 | 12168 ft | 365 kts | 185° |
| 2026-04-18 04:50 | 49.57633 | 8.50293 | 12728 ft | 369 kts | 185° |
| 2026-04-18 04:50 | 49.55090 | 8.50076 | 13282 ft | 373 kts | 185° |
| 2026-04-18 04:51 | 49.52488 | 8.49853 | 13832 ft | 377 kts | 185° |
| 2026-04-18 04:51 | 49.49858 | 8.49625 | 14333 ft | 381 kts | 185° |
| 2026-04-18 04:51 | 49.47202 | 8.49390 | 14842 ft | 384 kts | 185° |
| 2026-04-18 04:51 | 49.44526 | 8.49159 | 15358 ft | 386 kts | 184° |
| 2026-04-18 04:52 | 49.41836 | 8.49047 | 15872 ft | 390 kts | 182° |
| 2026-04-18 04:52 | 49.39110 | 8.49071 | 16387 ft | 393 kts | 181° |
| 2026-04-18 04:52 | 49.36368 | 8.49175 | 16900 ft | 396 kts | 180° |
| 2026-04-18 04:52 | 49.33605 | 8.49303 | 17400 ft | 399 kts | 180° |
| 2026-04-18 04:53 | 49.30818 | 8.49422 | 17890 ft | 401 kts | 180° |
| 2026-04-18 04:53 | 49.28018 | 8.49508 | 18370 ft | 404 kts | 181° |
| 2026-04-18 04:53 | 49.25236 | 8.49566 | 18759 ft | 407 kts | 181° |
| 2026-04-18 04:53 | 49.22394 | 8.49606 | 19162 ft | 409 kts | 181° |
| 2026-04-18 04:54 | 49.19534 | 8.49634 | 19564 ft | 412 kts | 181° |
| 2026-04-18 04:54 | 49.16661 | 8.49659 | 19968 ft | 415 kts | 182° |
| 2026-04-18 04:54 | 49.13767 | 8.49688 | 20330 ft | 417 kts | 181° |
| 2026-04-18 04:54 | 49.10862 | 8.49720 | 20568 ft | 418 kts | 182° |
| 2026-04-18 04:55 | 49.07949 | 8.49754 | 20814 ft | 419 kts | 181° |
| 2026-04-18 04:55 | 49.05065 | 8.49791 | 21061 ft | 421 kts | 181° |
| 2026-04-18 04:55 | 49.02128 | 8.49834 | 21174 ft | 425 kts | 181° |
| 2026-04-18 04:56 | 48.96139 | 8.49927 | 21189 ft | 432 kts | 181° |
| 2026-04-18 04:56 | 48.93130 | 8.49974 | 21189 ft | 433 kts | 181° |
| 2026-04-18 04:56 | 48.90123 | 8.50021 | 21191 ft | 433 kts | 181° |
| 2026-04-18 04:56 | 48.87110 | 8.50066 | 21188 ft | 433 kts | 181° |
| 2026-04-18 04:57 | 48.84097 | 8.50109 | 21193 ft | 433 kts | 181° |
| 2026-04-18 04:57 | 48.81080 | 8.50151 | 21195 ft | 433 kts | 181° |
| 2026-04-18 04:57 | 48.78107 | 8.50193 | 21192 ft | 433 kts | 181° |
| 2026-04-18 04:57 | 48.75094 | 8.50235 | 21186 ft | 433 kts | 181° |
| 2026-04-18 04:58 | 48.72104 | 8.50268 | 21193 ft | 427 kts | 182° |
| 2026-04-18 04:58 | 48.69117 | 8.50298 | 21195 ft | 431 kts | 181° |
| 2026-04-18 04:58 | 48.66110 | 8.50334 | 21195 ft | 433 kts | 181° |
| 2026-04-18 04:58 | 48.63103 | 8.50374 | 21196 ft | 433 kts | 181° |
| 2026-04-18 04:59 | 48.60087 | 8.50420 | 21195 ft | 433 kts | 181° |
| 2026-04-18 04:59 | 48.57114 | 8.50466 | 21200 ft | 433 kts | 181° |
| 2026-04-18 04:59 | 48.54102 | 8.50512 | 21200 ft | 433 kts | 181° |
| 2026-04-18 04:59 | 48.51090 | 8.50555 | 21201 ft | 433 kts | 181° |
| 2026-04-18 05:00 | 48.48078 | 8.50597 | 21204 ft | 433 kts | 181° |
| 2026-04-18 05:00 | 48.45066 | 8.50637 | 21202 ft | 433 kts | 181° |
| 2026-04-18 05:00 | 48.42053 | 8.50678 | 21204 ft | 433 kts | 181° |
| 2026-04-18 05:00 | 48.39041 | 8.50719 | 21193 ft | 432 kts | 181° |
| 2026-04-18 05:01 | 48.36033 | 8.50760 | 21196 ft | 432 kts | 181° |
| 2026-04-18 05:01 | 48.33029 | 8.50805 | 21191 ft | 432 kts | 181° |
| 2026-04-18 05:01 | 48.30018 | 8.50852 | 21197 ft | 432 kts | 181° |
| 2026-04-18 05:01 | 48.27049 | 8.50896 | 21203 ft | 432 kts | 181° |
| 2026-04-18 05:02 | 48.24045 | 8.50938 | 21201 ft | 432 kts | 181° |
| 2026-04-18 05:02 | 48.21035 | 8.50980 | 21204 ft | 432 kts | 181° |
| 2026-04-18 05:02 | 48.18043 | 8.51025 | 21189 ft | 424 kts | 181° |
| 2026-04-18 05:02 | 48.15138 | 8.51074 | 20890 ft | 412 kts | 181° |
| 2026-04-18 05:03 | 48.12291 | 8.51120 | 20420 ft | 407 kts | 181° |
| 2026-04-18 05:03 | 48.09478 | 8.51157 | 19894 ft | 402 kts | 181° |
| 2026-04-18 05:03 | 48.06731 | 8.51190 | 19384 ft | 399 kts | 181° |
| 2026-04-18 05:03 | 48.03959 | 8.51225 | 18953 ft | 397 kts | 181° |
| 2026-04-18 05:04 | 48.01206 | 8.51260 | 18536 ft | 395 kts | 181° |
| 2026-04-18 05:04 | 47.98470 | 8.51499 | 18055 ft | 393 kts | 173° |
| 2026-04-18 05:04 | 47.95818 | 8.52416 | 17580 ft | 391 kts | 162° |
| 2026-04-18 05:04 | 47.93242 | 8.53691 | 17108 ft | 388 kts | 167° |
| 2026-04-18 05:05 | 47.90623 | 8.54610 | 16648 ft | 385 kts | 168° |
| 2026-04-18 05:05 | 47.89774 | 8.54892 | 16500 ft | 384 kts | 169° |
| 2026-04-18 05:05 | 47.88471 | 8.55345 | 16267 ft | 383 kts | 168° |
| 2026-04-18 05:05 | 47.85913 | 8.56202 | 15825 ft | 380 kts | 169° |
| 2026-04-18 05:06 | 47.83347 | 8.57052 | 15384 ft | 377 kts | 169° |
| 2026-04-18 05:06 | 47.80790 | 8.57901 | 14938 ft | 375 kts | 169° |
| 2026-04-18 05:06 | 47.78255 | 8.58745 | 14512 ft | 372 kts | 169° |
| 2026-04-18 05:06 | 47.75739 | 8.59581 | 14085 ft | 369 kts | 169° |
| 2026-04-18 05:07 | 47.73242 | 8.60413 | 13619 ft | 367 kts | 168° |
| 2026-04-18 05:07 | 47.70764 | 8.61236 | 13260 ft | 363 kts | 169° |
| 2026-04-18 05:07 | 47.68329 | 8.62045 | 12958 ft | 363 kts | 169° |
| 2026-04-18 05:07 | 47.65877 | 8.62859 | 12486 ft | 359 kts | 169° |
| 2026-04-18 05:08 | 47.63449 | 8.63665 | 11998 ft | 356 kts | 169° |
| 2026-04-18 05:08 | 47.61045 | 8.64463 | 11497 ft | 353 kts | 169° |
| 2026-04-18 05:08 | 47.58664 | 8.65256 | 11004 ft | 349 kts | 169° |
| 2026-04-18 05:08 | 47.56302 | 8.66045 | 10517 ft | 346 kts | 168° |
| 2026-04-18 05:09 | 47.54056 | 8.67240 | 10036 ft | 343 kts | 154° |
| 2026-04-18 05:09 | 47.51954 | 8.68868 | 9564 ft | 337 kts | 154° |
| 2026-04-18 05:09 | 47.49908 | 8.70436 | 9274 ft | 327 kts | 154° |
| 2026-04-18 05:09 | 47.47941 | 8.71938 | 8994 ft | 317 kts | 154° |
| 2026-04-18 05:10 | 47.46007 | 8.73407 | 8710 ft | 309 kts | 154° |
| 2026-04-18 05:10 | 47.44116 | 8.74836 | 8428 ft | 301 kts | 154° |
| 2026-04-18 05:10 | 47.42273 | 8.76223 | 8126 ft | 295 kts | 154° |
| 2026-04-18 05:10 | 47.40449 | 8.77587 | 7741 ft | 292 kts | 154° |
| 2026-04-18 05:11 | 47.38642 | 8.78928 | 7376 ft | 289 kts | 154° |
| 2026-04-18 05:11 | 47.36850 | 8.80250 | 7015 ft | 287 kts | 154° |
| 2026-04-18 05:11 | 47.34988 | 8.81201 | 6645 ft | 283 kts | 174° |
| 2026-04-18 05:11 | 47.33090 | 8.80881 | 6355 ft | 277 kts | 201° |
| 2026-04-18 05:12 | 47.31518 | 8.79327 | 6099 ft | 274 kts | 227° |
| 2026-04-18 05:12 | 47.30322 | 8.77145 | 5844 ft | 274 kts | 233° |
| 2026-04-18 05:12 | 47.29191 | 8.74883 | 5592 ft | 274 kts | 233° |
| 2026-04-18 05:12 | 47.28236 | 8.72477 | 5339 ft | 272 kts | 253° |
| 2026-04-18 05:13 | 47.28084 | 8.69734 | 5096 ft | 271 kts | 281° |
| 2026-04-18 05:13 | 47.28807 | 8.67244 | 4998 ft | 260 kts | 309° |
| 2026-04-18 05:13 | 47.30121 | 8.65570 | 4903 ft | 244 kts | 333° |
| 2026-04-18 05:13 | 47.31612 | 8.64529 | 4579 ft | 230 kts | 337° |
| 2026-04-18 05:14 | 47.33010 | 8.63585 | 4265 ft | 216 kts | 336° |
| 2026-04-18 05:14 | 47.34328 | 8.62687 | 3965 ft | 205 kts | 337° |
| 2026-04-18 05:14 | 47.35596 | 8.61819 | 3661 ft | 195 kts | 336° |
| 2026-04-18 05:14 | 47.36788 | 8.61002 | 3411 ft | 182 kts | 336° |
| 2026-04-18 05:15 | 47.37882 | 8.60251 | 3138 ft | 166 kts | 337° |
| 2026-04-18 05:15 | 47.38897 | 8.59555 | 2875 ft | 156 kts | 336° |
| 2026-04-18 05:15 | 47.39869 | 8.58889 | 2617 ft | 152 kts | 336° |
| 2026-04-18 05:15 | 47.40818 | 8.58236 | 2413 ft | 150 kts | 336° |
| 2026-04-18 05:16 | 47.41759 | 8.57588 | 2205 ft | 149 kts | 336° |
| 2026-04-18 05:16 | 47.42682 | 8.56960 | 1992 ft | 148 kts | 335° |
| 2026-04-18 05:16 | 47.43611 | 8.56319 | 1763 ft | 147 kts | 335° |
| 2026-04-18 05:16 | 47.44531 | 8.55677 | 1535 ft | 146 kts | 335° |
| 2026-04-18 05:17 | 47.45444 | 8.55060 | 1405 ft | 137 kts | 336° |
| 2026-04-18 05:17 | 47.46117 | 8.54596 | 1401 ft | 64 kts | 335° |
| 2026-04-18 05:17 | 47.46374 | 8.54419 | 1402 ft | 16 kts | 335° |
| 2026-04-18 05:17 | 47.46447 | 8.54471 | 1401 ft | 13 kts | 59° |
| 2026-04-18 05:18 | 47.46481 | 8.54579 | 1399 ft | 8 kts | 73° |
| 2026-04-18 05:18 | 47.46453 | 8.54643 | 1401 ft | 9 kts | 146° |
| 2026-04-18 05:18 | 47.46393 | 8.54684 | 1404 ft | 10 kts | 155° |
| 2026-04-18 05:18 | 47.46321 | 8.54733 | 1404 ft | 12 kts | 155° |
| 2026-04-18 05:19 | 47.46235 | 8.54793 | 1401 ft | 15 kts | 155° |
| 2026-04-18 05:19 | 47.46134 | 8.54862 | 1398 ft | 17 kts | 155° |
| 2026-04-18 05:19 | 47.46021 | 8.54940 | 1406 ft | 19 kts | 155° |
| 2026-04-18 05:19 | 47.45899 | 8.55025 | 1399 ft | 20 kts | 155° |
| 2026-04-18 05:20 | 47.45766 | 8.55117 | 1404 ft | 22 kts | 155° |
| 2026-04-18 05:20 | 47.45627 | 8.55213 | 1403 ft | 22 kts | 154° |
| 2026-04-18 05:20 | 47.45488 | 8.55309 | 1402 ft | 20 kts | 155° |
| 2026-04-18 05:20 | 47.45377 | 8.55384 | 1397 ft | 10 kts | 155° |
| 2026-04-18 05:21 | 47.45350 | 8.55403 | 1400 ft | 0 kts | 154° |
| 2026-04-18 05:21 | 47.45345 | 8.55406 | 1399 ft | 2 kts | 155° |
| 2026-04-18 05:22 | 47.45332 | 8.55417 | 1402 ft | 2 kts | 149° |
| 2026-04-18 05:22 | 47.45323 | 8.55429 | 1403 ft | 2 kts | 135° |
| 2026-04-18 05:22 | 47.45316 | 8.55442 | 1401 ft | 2 kts | 127° |
| 2026-04-18 05:22 | 47.45304 | 8.55466 | 1406 ft | 4 kts | 127° |
| 2026-04-18 05:23 | 47.45286 | 8.55507 | 1404 ft | 6 kts | 118° |
| 2026-04-18 05:23 | 47.45276 | 8.55569 | 1397 ft | 7 kts | 97° |
| 2026-04-18 05:23 | 47.45271 | 8.55648 | 1400 ft | 9 kts | 96° |
| 2026-04-18 05:23 | 47.45264 | 8.55741 | 1397 ft | 9 kts | 96° |
| 2026-04-18 05:24 | 47.45259 | 8.55816 | 1397 ft | 6 kts | 96° |
| 2026-04-18 05:24 | 47.45274 | 8.55848 | 1405 ft | 3 kts | 29° |
| 2026-04-18 05:24 | 47.45288 | 8.55853 | 1397 ft | 2 kts | 12° |
| 2026-04-18 05:24 | 47.45305 | 8.55857 | 1397 ft | 3 kts | 7° |
| 2026-04-18 05:25 | 47.45328 | 8.55861 | 1397 ft | 3 kts | 6° |
| 2026-04-18 05:25 | 47.45339 | 8.55863 | 1397 ft | 0 kts | 6° |